sensor_id;sensor_type;location;lat;lon;timestamp;pressure;altitude;pressure_sealevel;temperature;humidity
25664;BME280;13522;50.018;20.014;2023-07-20T00:01:15;98003.78;;;19.98;95.07
25664;BME280;13522;50.018;20.014;2023-07-20T00:04:28;98003.78;;;19.98;93.76
25664;BME280;13522;50.018;20.014;2023-07-20T00:07:40;98002.11;;;19.97;91.69
25664;BME280;13522;50.018;20.014;2023-07-20T00:10:52;97993.83;;;19.98;91.29
25664;BME280;13522;50.018;20.014;2023-07-20T00:14:05;97993.83;;;19.98;91.44
25664;BME280;13522;50.018;20.014;2023-07-20T00:17:18;97988.48;;;19.92;92.07
25664;BME280;13522;50.018;20.014;2023-07-20T00:20:31;97983.55;;;19.88;92.22
25664;BME280;13522;50.018;20.014;2023-07-20T00:23:43;97986.45;;;19.87;91.88
25664;BME280;13522;50.018;20.014;2023-07-20T00:26:55;97986.07;;;19.83;91.40
25664;BME280;13522;50.018;20.014;2023-07-20T00:30:11;97981.56;;;19.77;90.27
25664;BME280;13522;50.018;20.014;2023-07-20T00:33:25;97985.31;;;19.76;90.09
25664;BME280;13522;50.018;20.014;2023-07-20T00:36:37;97987.41;;;19.74;90.60
25664;BME280;13522;50.018;20.014;2023-07-20T00:39:50;97968.31;;;19.76;90.87
25664;BME280;13522;50.018;20.014;2023-07-20T00:43:04;97981.41;;;19.72;90.99
25664;BME280;13522;50.018;20.014;2023-07-20T00:46:17;97971.89;;;19.70;91.23
25664;BME280;13522;50.018;20.014;2023-07-20T00:49:31;97971.94;;;19.63;91.10
25664;BME280;13522;50.018;20.014;2023-07-20T00:52:45;97974.25;;;19.60;91.63
25664;BME280;13522;50.018;20.014;2023-07-20T00:55:58;97977.78;;;19.60;91.14
25664;BME280;13522;50.018;20.014;2023-07-20T00:59:13;97974.36;;;19.71;91.05
25664;BME280;13522;50.018;20.014;2023-07-20T01:02:26;97986.34;;;19.75;90.52
25664;BME280;13522;50.018;20.014;2023-07-20T01:05:42;97987.94;;;19.83;91.07
25664;BME280;13522;50.018;20.014;2023-07-20T01:09:04;97981.94;;;19.81;90.79
25664;BME280;13522;50.018;20.014;2023-07-20T01:12:25;97986.53;;;19.80;92.24
25664;BME280;13522;50.018;20.014;2023-07-20T01:15:38;97983.23;;;19.78;92.72
25664;BME280;13522;50.018;20.014;2023-07-20T01:18:50;97986.53;;;19.80;91.50
25664;BME280;13522;50.018;20.014;2023-07-20T01:22:07;97999.32;;;19.85;93.68
25664;BME280;13522;50.018;20.014;2023-07-20T01:25:30;97995.64;;;19.79;95.03
25664;BME280;13522;50.018;20.014;2023-07-20T01:29:06;98004.38;;;19.75;95.98
25664;BME280;13522;50.018;20.014;2023-07-20T01:32:32;98012.19;;;19.83;96.27
25664;BME280;13522;50.018;20.014;2023-07-20T01:35:47;98040.89;;;19.71;97.99
25664;BME280;13522;50.018;20.014;2023-07-20T01:39:02;98045.55;;;19.57;99.75
25664;BME280;13522;50.018;20.014;2023-07-20T01:42:15;98053.86;;;19.56;100.00
25664;BME280;13522;50.018;20.014;2023-07-20T01:45:28;98055.91;;;19.60;100.00
25664;BME280;13522;50.018;20.014;2023-07-20T01:48:41;98067.71;;;19.59;100.00
25664;BME280;13522;50.018;20.014;2023-07-20T01:51:53;98065.69;;;19.55;100.00
25664;BME280;13522;50.018;20.014;2023-07-20T01:55:08;98053.86;;;19.56;99.67
25664;BME280;13522;50.018;20.014;2023-07-20T01:58:20;98057.55;;;19.61;97.11
25664;BME280;13522;50.018;20.014;2023-07-20T02:01:32;98050.25;;;19.68;96.46
25664;BME280;13522;50.018;20.014;2023-07-20T02:04:45;98052.50;;;19.71;97.22
25664;BME280;13522;50.018;20.014;2023-07-20T02:07:59;98052.95;;;19.68;98.78
25664;BME280;13522;50.018;20.014;2023-07-20T02:11:11;98045.28;;;19.65;99.19
25664;BME280;13522;50.018;20.014;2023-07-20T02:14:23;98046.00;;;19.54;100.00
25664;BME280;13522;50.018;20.014;2023-07-20T02:17:36;98048.50;;;19.49;100.00
25664;BME280;13522;50.018;20.014;2023-07-20T02:20:48;98043.12;;;19.49;98.65
25664;BME280;13522;50.018;20.014;2023-07-20T02:24:00;98032.15;;;19.51;96.04
25664;BME280;13522;50.018;20.014;2023-07-20T02:27:13;98019.89;;;19.55;96.58
25664;BME280;13522;50.018;20.014;2023-07-20T02:30:26;98019.02;;;19.61;92.78
25664;BME280;13522;50.018;20.014;2023-07-20T02:33:38;98017.70;;;19.70;92.26
25664;BME280;13522;50.018;20.014;2023-07-20T02:36:50;98014.35;;;19.74;90.59
25664;BME280;13522;50.018;20.014;2023-07-20T02:40:06;98023.05;;;19.76;90.75
25664;BME280;13522;50.018;20.014;2023-07-20T02:43:19;98020.13;;;19.78;90.20
25664;BME280;13522;50.018;20.014;2023-07-20T02:46:32;98012.04;;;19.78;90.51
25664;BME280;13522;50.018;20.014;2023-07-20T02:49:44;98029.23;;;19.77;91.73
25664;BME280;13522;50.018;20.014;2023-07-20T02:52:57;98031.78;;;19.72;92.05
25664;BME280;13522;50.018;20.014;2023-07-20T02:56:09;98027.41;;;19.71;92.24
25664;BME280;13522;50.018;20.014;2023-07-20T02:59:21;98028.47;;;19.70;92.52
25664;BME280;13522;50.018;20.014;2023-07-20T03:02:35;98048.81;;;19.66;93.69
25664;BME280;13522;50.018;20.014;2023-07-20T03:05:48;98050.14;;;19.57;94.88
25664;BME280;13522;50.018;20.014;2023-07-20T03:09:02;98063.89;;;19.42;98.34
25664;BME280;13522;50.018;20.014;2023-07-20T03:12:15;98062.48;;;19.33;100.00
25664;BME280;13522;50.018;20.014;2023-07-20T03:15:28;98066.03;;;19.27;100.00
25664;BME280;13522;50.018;20.014;2023-07-20T03:18:40;98073.74;;;19.17;100.00
25664;BME280;13522;50.018;20.014;2023-07-20T03:21:53;98085.53;;;19.16;100.00
25664;BME280;13522;50.018;20.014;2023-07-20T03:25:06;98087.61;;;19.14;100.00
25664;BME280;13522;50.018;20.014;2023-07-20T03:28:19;98083.28;;;19.13;100.00
25664;BME280;13522;50.018;20.014;2023-07-20T03:31:32;98086.83;;;19.07;100.00
25664;BME280;13522;50.018;20.014;2023-07-20T03:34:45;98074.64;;;18.98;100.00
25664;BME280;13522;50.018;20.014;2023-07-20T03:37:57;98085.23;;;18.93;100.00
25664;BME280;13522;50.018;20.014;2023-07-20T03:41:10;98096.41;;;18.90;100.00
25664;BME280;13522;50.018;20.014;2023-07-20T03:44:23;98094.15;;;18.87;100.00
25664;BME280;13522;50.018;20.014;2023-07-20T03:47:35;98122.52;;;18.83;100.00
25664;BME280;13522;50.018;20.014;2023-07-20T03:50:48;98115.06;;;18.78;100.00
25664;BME280;13522;50.018;20.014;2023-07-20T03:54:02;98120.89;;;18.75;100.00
25664;BME280;13522;50.018;20.014;2023-07-20T03:57:14;98126.45;;;18.74;100.00
25664;BME280;13522;50.018;20.014;2023-07-20T04:00:26;98120.45;;;18.72;100.00
25664;BME280;13522;50.018;20.014;2023-07-20T04:03:39;98116.75;;;18.73;100.00
25664;BME280;13522;50.018;20.014;2023-07-20T04:06:53;98144.88;;;18.77;100.00
25664;BME280;13522;50.018;20.014;2023-07-20T04:10:07;98145.50;;;18.79;100.00
25664;BME280;13522;50.018;20.014;2023-07-20T04:13:20;98174.48;;;18.77;100.00
25664;BME280;13522;50.018;20.014;2023-07-20T04:16:33;98185.42;;;18.82;100.00
25664;BME280;13522;50.018;20.014;2023-07-20T04:19:45;98180.04;;;18.88;100.00
25664;BME280;13522;50.018;20.014;2023-07-20T04:22:58;98182.72;;;18.95;100.00
25664;BME280;13522;50.018;20.014;2023-07-20T04:26:11;98198.26;;;18.86;100.00
25664;BME280;13522;50.018;20.014;2023-07-20T04:29:23;98193.27;;;18.90;100.00
25664;BME280;13522;50.018;20.014;2023-07-20T04:32:35;98203.23;;;18.89;100.00
25664;BME280;13522;50.018;20.014;2023-07-20T04:35:53;98204.47;;;18.87;100.00
25664;BME280;13522;50.018;20.014;2023-07-20T04:39:07;98201.56;;;18.82;100.00
25664;BME280;13522;50.018;20.014;2023-07-20T04:42:23;98215.23;;;18.80;100.00
25664;BME280;13522;50.018;20.014;2023-07-20T04:45:35;98224.33;;;18.86;100.00
25664;BME280;13522;50.018;20.014;2023-07-20T04:48:49;98230.11;;;19.02;100.00
25664;BME280;13522;50.018;20.014;2023-07-20T04:52:02;98229.68;;;19.05;100.00
25664;BME280;13522;50.018;20.014;2023-07-20T04:55:15;98233.20;;;19.19;100.00
25664;BME280;13522;50.018;20.014;2023-07-20T04:58:28;98236.71;;;19.33;100.00
25664;BME280;13522;50.018;20.014;2023-07-20T05:01:40;98248.08;;;19.28;99.94
25664;BME280;13522;50.018;20.014;2023-07-20T05:04:54;98246.00;;;19.30;100.00
25664;BME280;13522;50.018;20.014;2023-07-20T05:08:06;98257.81;;;19.36;99.86
25664;BME280;13522;50.018;20.014;2023-07-20T05:11:20;98259.03;;;19.46;99.57
25664;BME280;13522;50.018;20.014;2023-07-20T05:14:32;98272.29;;;19.48;99.50
25664;BME280;13522;50.018;20.014;2023-07-20T05:17:44;98265.27;;;19.40;98.63
25664;BME280;13522;50.018;20.014;2023-07-20T05:20:58;98266.11;;;19.34;98.83
25664;BME280;13522;50.018;20.014;2023-07-20T05:24:10;98268.16;;;19.32;98.34
25664;BME280;13522;50.018;20.014;2023-07-20T05:27:23;98268.80;;;19.34;99.04
25664;BME280;13522;50.018;20.014;2023-07-20T05:30:35;98276.05;;;19.34;97.53
25664;BME280;13522;50.018;20.014;2023-07-20T05:33:48;98270.23;;;19.30;98.91
25664;BME280;13522;50.018;20.014;2023-07-20T05:37:00;98274.38;;;19.39;97.53
25664;BME280;13522;50.018;20.014;2023-07-20T05:40:14;98263.98;;;19.49;98.02
25664;BME280;13522;50.018;20.014;2023-07-20T05:43:28;98269.38;;;19.49;96.41
25664;BME280;13522;50.018;20.014;2023-07-20T05:46:40;98270.19;;;19.63;93.56
25664;BME280;13522;50.018;20.014;2023-07-20T05:49:54;98262.43;;;19.79;91.71
25664;BME280;13522;50.018;20.014;2023-07-20T05:53:06;98241.48;;;19.81;91.91
25664;BME280;13522;50.018;20.014;2023-07-20T05:56:19;98237.39;;;19.72;92.81
25664;BME280;13522;50.018;20.014;2023-07-20T05:59:31;98247.07;;;19.86;91.13
25664;BME280;13522;50.018;20.014;2023-07-20T06:02:44;98239.47;;;19.70;92.73
25664;BME280;13522;50.018;20.014;2023-07-20T06:06:01;98241.60;;;20.00;93.40
25664;BME280;13522;50.018;20.014;2023-07-20T06:09:13;98249.19;;;20.16;91.54
25664;BME280;13522;50.018;20.014;2023-07-20T06:12:25;98240.39;;;20.33;92.46
25664;BME280;13522;50.018;20.014;2023-07-20T06:15:38;98234.84;;;20.53;86.71
25664;BME280;13522;50.018;20.014;2023-07-20T06:18:50;98235.18;;;20.63;85.79
25664;BME280;13522;50.018;20.014;2023-07-20T06:22:04;98226.30;;;20.81;82.34
25664;BME280;13522;50.018;20.014;2023-07-20T06:25:16;98227.00;;;20.94;82.43
25664;BME280;13522;50.018;20.014;2023-07-20T06:28:29;98233.75;;;20.85;81.57
25664;BME280;13522;50.018;20.014;2023-07-20T06:31:42;98224.16;;;20.89;81.78
25664;BME280;13522;50.018;20.014;2023-07-20T06:34:55;98216.66;;;20.91;80.49
25664;BME280;13522;50.018;20.014;2023-07-20T06:38:07;98225.19;;;20.88;81.54
25664;BME280;13522;50.018;20.014;2023-07-20T06:41:21;98217.04;;;21.19;79.04
25664;BME280;13522;50.018;20.014;2023-07-20T06:44:36;98223.92;;;21.33;78.86
25664;BME280;13522;50.018;20.014;2023-07-20T06:47:48;98215.44;;;21.66;78.78
25664;BME280;13522;50.018;20.014;2023-07-20T06:51:00;98218.23;;;22.07;77.81
25664;BME280;13522;50.018;20.014;2023-07-20T06:54:13;98219.22;;;22.24;79.35
25664;BME280;13522;50.018;20.014;2023-07-20T06:57:28;98223.28;;;22.45;74.85
25664;BME280;13522;50.018;20.014;2023-07-20T07:00:40;98215.61;;;22.83;74.83
25664;BME280;13522;50.018;20.014;2023-07-20T07:03:52;98218.72;;;23.61;73.77
25664;BME280;13522;50.018;20.014;2023-07-20T07:07:05;98217.84;;;23.84;69.64
25664;BME280;13522;50.018;20.014;2023-07-20T07:10:18;98216.92;;;23.78;69.69
25664;BME280;13522;50.018;20.014;2023-07-20T07:13:31;98223.77;;;24.09;71.69
25664;BME280;13522;50.018;20.014;2023-07-20T07:16:43;98224.30;;;24.23;68.26
25664;BME280;13522;50.018;20.014;2023-07-20T07:19:57;98227.52;;;24.98;67.63
25664;BME280;13522;50.018;20.014;2023-07-20T07:23:10;98206.16;;;25.06;65.02
25664;BME280;13522;50.018;20.014;2023-07-20T07:26:23;98238.88;;;25.49;65.79
25664;BME280;13522;50.018;20.014;2023-07-20T07:29:36;98228.34;;;25.53;63.03
25664;BME280;13522;50.018;20.014;2023-07-20T07:32:52;98228.47;;;25.41;64.92
25664;BME280;13522;50.018;20.014;2023-07-20T07:36:05;98236.38;;;25.86;64.67
25664;BME280;13522;50.018;20.014;2023-07-20T07:39:17;98227.20;;;26.14;62.01
25664;BME280;13522;50.018;20.014;2023-07-20T07:42:32;98229.03;;;26.61;63.21
25664;BME280;13522;50.018;20.014;2023-07-20T07:45:45;98230.36;;;26.86;59.73
25664;BME280;13522;50.018;20.014;2023-07-20T07:48:57;98241.06;;;26.39;62.98
25664;BME280;13522;50.018;20.014;2023-07-20T07:52:10;98247.65;;;26.16;62.48
25664;BME280;13522;50.018;20.014;2023-07-20T07:55:23;98250.94;;;24.70;66.24
25664;BME280;13522;50.018;20.014;2023-07-20T07:58:37;98251.27;;;24.57;66.79
25664;BME280;13522;50.018;20.014;2023-07-20T08:01:48;98265.64;;;24.41;67.59
25664;BME280;13522;50.018;20.014;2023-07-20T08:05:01;98264.25;;;23.48;71.15
25664;BME280;13522;50.018;20.014;2023-07-20T08:08:13;98259.88;;;23.58;71.28
25664;BME280;13522;50.018;20.014;2023-07-20T08:11:25;98253.97;;;24.01;70.48
25664;BME280;13522;50.018;20.014;2023-07-20T08:14:39;98253.43;;;24.27;71.57
25664;BME280;13522;50.018;20.014;2023-07-20T08:17:52;98247.73;;;24.12;72.00
25664;BME280;13522;50.018;20.014;2023-07-20T08:21:04;98254.60;;;23.91;72.70
25664;BME280;13522;50.018;20.014;2023-07-20T08:24:17;98266.84;;;23.54;72.49
25664;BME280;13522;50.018;20.014;2023-07-20T08:27:29;98274.95;;;23.19;73.51
25664;BME280;13522;50.018;20.014;2023-07-20T08:30:45;98282.28;;;23.19;76.37
25664;BME280;13522;50.018;20.014;2023-07-20T08:33:59;98280.38;;;22.96;72.96
25664;BME280;13522;50.018;20.014;2023-07-20T08:37:12;98284.94;;;22.84;76.20
25664;BME280;13522;50.018;20.014;2023-07-20T08:40:25;98290.41;;;23.07;77.87
25664;BME280;13522;50.018;20.014;2023-07-20T08:43:38;98282.55;;;24.03;74.59
25664;BME280;13522;50.018;20.014;2023-07-20T08:46:54;98277.00;;;24.38;69.07
25664;BME280;13522;50.018;20.014;2023-07-20T08:50:09;98269.15;;;25.20;69.89
25664;BME280;13522;50.018;20.014;2023-07-20T08:53:22;98272.58;;;25.87;68.09
25664;BME280;13522;50.018;20.014;2023-07-20T08:56:35;98275.53;;;25.85;64.83
25664;BME280;13522;50.018;20.014;2023-07-20T08:59:47;98270.61;;;25.82;65.08
25664;BME280;13522;50.018;20.014;2023-07-20T09:03:02;98276.17;;;26.62;62.83
25664;BME280;13522;50.018;20.014;2023-07-20T09:06:16;98266.36;;;26.34;61.21
25664;BME280;13522;50.018;20.014;2023-07-20T09:09:29;98262.23;;;27.22;62.69
25664;BME280;13522;50.018;20.014;2023-07-20T09:12:43;98262.67;;;27.45;58.50
25664;BME280;13522;50.018;20.014;2023-07-20T09:15:56;98257.98;;;27.36;60.14
25664;BME280;13522;50.018;20.014;2023-07-20T09:19:09;98264.64;;;27.13;57.97
25664;BME280;13522;50.018;20.014;2023-07-20T09:22:22;98266.73;;;27.01;61.27
25664;BME280;13522;50.018;20.014;2023-07-20T09:25:34;98266.24;;;26.51;62.03
25664;BME280;13522;50.018;20.014;2023-07-20T09:28:52;98281.63;;;25.70;62.93
25664;BME280;13522;50.018;20.014;2023-07-20T09:32:08;98280.22;;;25.90;62.72
25664;BME280;13522;50.018;20.014;2023-07-20T09:35:23;98277.02;;;25.00;66.27
25664;BME280;13522;50.018;20.014;2023-07-20T09:38:37;98260.91;;;26.34;62.96
25664;BME280;13522;50.018;20.014;2023-07-20T09:41:52;98257.40;;;26.66;58.05
25664;BME280;13522;50.018;20.014;2023-07-20T09:45:09;98260.39;;;26.64;57.68
25664;BME280;13522;50.018;20.014;2023-07-20T09:48:24;98260.36;;;26.91;56.79
25664;BME280;13522;50.018;20.014;2023-07-20T09:51:38;98255.99;;;27.68;55.94
25664;BME280;13522;50.018;20.014;2023-07-20T09:54:51;98251.46;;;27.94;53.52
25664;BME280;13522;50.018;20.014;2023-07-20T09:58:04;98260.52;;;27.11;57.34
25664;BME280;13522;50.018;20.014;2023-07-20T10:01:20;98264.17;;;27.63;55.89
25664;BME280;13522;50.018;20.014;2023-07-20T10:04:35;98266.07;;;27.26;59.75
25664;BME280;13522;50.018;20.014;2023-07-20T10:07:49;98254.19;;;27.37;56.66
25664;BME280;13522;50.018;20.014;2023-07-20T10:11:04;98256.26;;;28.34;55.51
25664;BME280;13522;50.018;20.014;2023-07-20T10:14:20;98257.64;;;26.91;54.99
25664;BME280;13522;50.018;20.014;2023-07-20T10:17:33;98259.23;;;26.87;56.25
25664;BME280;13522;50.018;20.014;2023-07-20T10:20:46;98261.75;;;26.67;55.96
25664;BME280;13522;50.018;20.014;2023-07-20T10:24:01;98255.61;;;27.50;54.65
25664;BME280;13522;50.018;20.014;2023-07-20T10:27:14;98240.85;;;27.97;51.15
25664;BME280;13522;50.018;20.014;2023-07-20T10:30:27;98249.66;;;28.14;53.35
25664;BME280;13522;50.018;20.014;2023-07-20T10:33:40;98259.28;;;27.70;51.85
25664;BME280;13522;50.018;20.014;2023-07-20T10:36:56;98259.86;;;26.94;54.50
25664;BME280;13522;50.018;20.014;2023-07-20T10:40:25;98273.89;;;26.27;58.03
25664;BME280;13522;50.018;20.014;2023-07-20T10:43:43;98267.27;;;25.75;59.81
25664;BME280;13522;50.018;20.014;2023-07-20T10:47:02;98261.38;;;26.26;58.98
25664;BME280;13522;50.018;20.014;2023-07-20T10:50:20;98258.55;;;27.01;58.24
25664;BME280;13522;50.018;20.014;2023-07-20T10:53:33;98245.91;;;27.27;54.75
25664;BME280;13522;50.018;20.014;2023-07-20T10:56:47;98240.78;;;27.87;54.05
25664;BME280;13522;50.018;20.014;2023-07-20T11:00:19;98239.61;;;28.45;55.06
25664;BME280;13522;50.018;20.014;2023-07-20T11:03:34;98241.02;;;29.13;54.33
25664;BME280;13522;50.018;20.014;2023-07-20T11:06:55;98226.83;;;28.66;50.65
25664;BME280;13522;50.018;20.014;2023-07-20T11:10:17;98238.84;;;28.95;49.01
25664;BME280;13522;50.018;20.014;2023-07-20T11:13:30;98221.06;;;28.72;48.65
25664;BME280;13522;50.018;20.014;2023-07-20T11:16:44;98232.78;;;28.33;50.93
25664;BME280;13522;50.018;20.014;2023-07-20T11:19:59;98228.72;;;28.70;50.83
25664;BME280;13522;50.018;20.014;2023-07-20T11:23:15;98220.23;;;29.22;48.33
25664;BME280;13522;50.018;20.014;2023-07-20T11:26:27;98219.98;;;28.93;50.04
25664;BME280;13522;50.018;20.014;2023-07-20T11:29:40;98220.25;;;28.97;47.84
25664;BME280;13522;50.018;20.014;2023-07-20T11:32:52;98223.55;;;28.84;47.96
25664;BME280;13522;50.018;20.014;2023-07-20T11:36:05;98217.80;;;28.85;49.55
25664;BME280;13522;50.018;20.014;2023-07-20T11:39:21;98227.81;;;28.14;51.68
25664;BME280;13522;50.018;20.014;2023-07-20T11:42:34;98240.19;;;27.28;52.30
25664;BME280;13522;50.018;20.014;2023-07-20T11:45:48;98243.80;;;27.34;53.54
25664;BME280;13522;50.018;20.014;2023-07-20T11:49:02;98240.73;;;27.25;56.07
25664;BME280;13522;50.018;20.014;2023-07-20T11:52:16;98222.05;;;28.11;52.88
25664;BME280;13522;50.018;20.014;2023-07-20T11:55:29;98222.78;;;27.86;53.35
25664;BME280;13522;50.018;20.014;2023-07-20T11:58:45;98223.40;;;27.98;50.91
25664;BME280;13522;50.018;20.014;2023-07-20T12:01:58;98218.27;;;28.22;53.15
25664;BME280;13522;50.018;20.014;2023-07-20T12:05:13;98233.50;;;27.46;52.70
25664;BME280;13522;50.018;20.014;2023-07-20T12:08:25;98223.03;;;26.91;52.80
25664;BME280;13522;50.018;20.014;2023-07-20T12:11:39;98231.78;;;26.67;56.10
25664;BME280;13522;50.018;20.014;2023-07-20T12:14:52;98224.85;;;27.59;54.85
25664;BME280;13522;50.018;20.014;2023-07-20T12:18:05;98209.13;;;27.91;52.70
25664;BME280;13522;50.018;20.014;2023-07-20T12:21:19;98210.02;;;27.97;53.53
25664;BME280;13522;50.018;20.014;2023-07-20T12:24:31;98193.98;;;28.51;54.71
25664;BME280;13522;50.018;20.014;2023-07-20T12:27:45;98197.80;;;28.45;51.98
25664;BME280;13522;50.018;20.014;2023-07-20T12:30:58;98189.09;;;28.63;50.42
25664;BME280;13522;50.018;20.014;2023-07-20T12:34:10;98189.34;;;28.96;50.85
25664;BME280;13522;50.018;20.014;2023-07-20T12:37:22;98191.72;;;29.48;50.65
25664;BME280;13522;50.018;20.014;2023-07-20T12:40:35;98194.00;;;28.91;51.27
25664;BME280;13522;50.018;20.014;2023-07-20T12:43:47;98190.91;;;28.02;50.96
25664;BME280;13522;50.018;20.014;2023-07-20T12:47:00;98187.77;;;27.68;49.99
25664;BME280;13522;50.018;20.014;2023-07-20T12:50:13;98192.20;;;27.89;51.95
25664;BME280;13522;50.018;20.014;2023-07-20T12:53:25;98177.88;;;28.54;47.74
25664;BME280;13522;50.018;20.014;2023-07-20T12:56:37;98170.78;;;28.83;47.73
25664;BME280;13522;50.018;20.014;2023-07-20T12:59:51;98175.13;;;29.20;52.37
25664;BME280;13522;50.018;20.014;2023-07-20T13:03:04;98153.94;;;29.50;46.59
25664;BME280;13522;50.018;20.014;2023-07-20T13:06:18;98170.17;;;29.27;45.36
25664;BME280;13522;50.018;20.014;2023-07-20T13:09:32;98166.13;;;28.94;47.40
25664;BME280;13522;50.018;20.014;2023-07-20T13:12:45;98158.94;;;29.33;48.03
25664;BME280;13522;50.018;20.014;2023-07-20T13:15:57;98156.53;;;29.01;49.84
25664;BME280;13522;50.018;20.014;2023-07-20T13:19:09;98159.03;;;28.73;47.23
25664;BME280;13522;50.018;20.014;2023-07-20T13:22:21;98149.73;;;28.28;46.79
25664;BME280;13522;50.018;20.014;2023-07-20T13:25:33;98154.66;;;28.57;47.02
25664;BME280;13522;50.018;20.014;2023-07-20T13:28:46;98158.45;;;28.25;48.65
25664;BME280;13522;50.018;20.014;2023-07-20T13:32:00;98165.53;;;28.06;49.43
25664;BME280;13522;50.018;20.014;2023-07-20T13:35:13;98171.19;;;27.90;50.54
25664;BME280;13522;50.018;20.014;2023-07-20T13:38:25;98168.27;;;28.06;49.59
25664;BME280;13522;50.018;20.014;2023-07-20T13:41:38;98152.93;;;27.95;49.25
25664;BME280;13522;50.018;20.014;2023-07-20T13:44:50;98161.72;;;28.12;48.57
25664;BME280;13522;50.018;20.014;2023-07-20T13:48:02;98162.72;;;27.86;49.97
25664;BME280;13522;50.018;20.014;2023-07-20T13:51:15;98168.39;;;27.65;50.02
25664;BME280;13522;50.018;20.014;2023-07-20T13:54:29;98160.44;;;27.58;47.10
25664;BME280;13522;50.018;20.014;2023-07-20T13:57:42;98166.35;;;27.35;51.46
25664;BME280;13522;50.018;20.014;2023-07-20T14:00:55;98165.34;;;27.56;52.75
25664;BME280;13522;50.018;20.014;2023-07-20T14:04:07;98177.32;;;27.03;49.88
25664;BME280;13522;50.018;20.014;2023-07-20T14:07:20;98185.86;;;26.80;49.66
25664;BME280;13522;50.018;20.014;2023-07-20T14:10:32;98180.27;;;27.33;47.30
25664;BME280;13522;50.018;20.014;2023-07-20T14:13:47;98173.56;;;27.61;46.87
25664;BME280;13522;50.018;20.014;2023-07-20T14:17:00;98179.12;;;27.29;47.16
25664;BME280;13522;50.018;20.014;2023-07-20T14:20:13;98183.56;;;27.45;47.92
25664;BME280;13522;50.018;20.014;2023-07-20T14:23:27;98179.34;;;27.75;49.18
25664;BME280;13522;50.018;20.014;2023-07-20T14:26:41;98177.00;;;28.13;46.05
25664;BME280;13522;50.018;20.014;2023-07-20T14:29:56;98159.50;;;27.99;44.80
25664;BME280;13522;50.018;20.014;2023-07-20T14:33:09;98150.36;;;27.64;45.35
25664;BME280;13522;50.018;20.014;2023-07-20T14:36:21;98151.73;;;27.61;47.05
25664;BME280;13522;50.018;20.014;2023-07-20T14:39:34;98148.28;;;27.29;47.62
25664;BME280;13522;50.018;20.014;2023-07-20T14:42:47;98152.45;;;26.95;47.10
25664;BME280;13522;50.018;20.014;2023-07-20T14:45:59;98168.88;;;27.05;47.96
25664;BME280;13522;50.018;20.014;2023-07-20T14:49:12;98168.45;;;27.28;46.23
25664;BME280;13522;50.018;20.014;2023-07-20T14:52:24;98173.98;;;27.33;48.17
25664;BME280;13522;50.018;20.014;2023-07-20T14:55:36;98174.16;;;27.21;49.05
25664;BME280;13522;50.018;20.014;2023-07-20T14:58:49;98200.24;;;26.71;51.32
25664;BME280;13522;50.018;20.014;2023-07-20T15:02:02;98195.86;;;26.38;52.25
25664;BME280;13522;50.018;20.014;2023-07-20T15:05:21;98197.67;;;26.06;53.70
25664;BME280;13522;50.018;20.014;2023-07-20T15:08:35;98200.28;;;25.96;55.56
25664;BME280;13522;50.018;20.014;2023-07-20T15:11:47;98217.22;;;25.38;54.16
25664;BME280;13522;50.018;20.014;2023-07-20T15:15:08;98218.42;;;25.25;55.40
25664;BME280;13522;50.018;20.014;2023-07-20T15:18:21;98225.95;;;25.02;58.31
25664;BME280;13522;50.018;20.014;2023-07-20T15:21:36;98238.72;;;25.01;59.90
25664;BME280;13522;50.018;20.014;2023-07-20T15:24:48;98266.18;;;24.71;63.81
25664;BME280;13522;50.018;20.014;2023-07-20T15:28:00;98277.77;;;24.22;68.10
25664;BME280;13522;50.018;20.014;2023-07-20T15:31:13;98266.59;;;23.56;75.36
25664;BME280;13522;50.018;20.014;2023-07-20T15:34:27;98278.63;;;23.25;73.51
25664;BME280;13522;50.018;20.014;2023-07-20T15:37:39;98271.31;;;23.02;75.27
25664;BME280;13522;50.018;20.014;2023-07-20T15:40:52;98286.36;;;22.75;75.08
25664;BME280;13522;50.018;20.014;2023-07-20T15:44:06;98326.00;;;21.92;78.22
25664;BME280;13522;50.018;20.014;2023-07-20T15:47:19;98313.59;;;21.24;79.51
25664;BME280;13522;50.018;20.014;2023-07-20T15:50:32;98327.50;;;21.03;79.32
25664;BME280;13522;50.018;20.014;2023-07-20T15:53:44;98341.64;;;20.67;82.98
25664;BME280;13522;50.018;20.014;2023-07-20T15:56:57;98346.50;;;20.08;89.60
25664;BME280;13522;50.018;20.014;2023-07-20T16:00:12;98340.58;;;19.79;92.88
25664;BME280;13522;50.018;20.014;2023-07-20T16:03:31;98336.53;;;19.44;97.74
25664;BME280;13522;50.018;20.014;2023-07-20T16:06:44;98329.50;;;19.11;99.12
25664;BME280;13522;50.018;20.014;2023-07-20T16:09:56;98309.61;;;19.18;100.00
25664;BME280;13522;50.018;20.014;2023-07-20T16:13:09;98310.44;;;19.45;100.00
25664;BME280;13522;50.018;20.014;2023-07-20T16:16:21;98339.19;;;19.57;100.00
25664;BME280;13522;50.018;20.014;2023-07-20T16:19:34;98344.35;;;19.65;100.00
25664;BME280;13522;50.018;20.014;2023-07-20T16:22:46;98342.53;;;19.46;100.00
25664;BME280;13522;50.018;20.014;2023-07-20T16:25:59;98345.63;;;19.63;100.00
25664;BME280;13522;50.018;20.014;2023-07-20T16:29:11;98332.32;;;19.74;100.00
25664;BME280;13522;50.018;20.014;2023-07-20T16:32:26;98334.59;;;19.71;100.00
25664;BME280;13522;50.018;20.014;2023-07-20T16:35:40;98325.72;;;19.57;100.00
25664;BME280;13522;50.018;20.014;2023-07-20T16:38:54;98330.92;;;19.59;100.00
25664;BME280;13522;50.018;20.014;2023-07-20T16:42:09;98300.50;;;19.39;100.00
25664;BME280;13522;50.018;20.014;2023-07-20T16:45:22;98324.64;;;19.71;100.00
25664;BME280;13522;50.018;20.014;2023-07-20T16:48:35;98325.88;;;19.75;100.00